createdAt,value
2023-06-10T00:00:06.266Z,458.70
2023-06-10T00:02:34.571Z,453.00
2023-06-10T00:05:03.028Z,449.67
2023-06-10T00:07:31.204Z,444.37
2023-06-10T00:09:59.328Z,441.47
2023-06-10T00:12:30.183Z,443.83
2023-06-10T00:14:58.307Z,446.57
2023-06-10T00:17:26.513Z,445.77
2023-06-10T00:19:55.077Z,442.02
2023-06-10T00:22:23.437Z,444.37
2023-06-10T00:24:51.926Z,439.23
2023-06-10T00:27:20.096Z,448.43
2023-06-10T00:29:49.626Z,446.07
2023-06-10T00:32:17.809Z,435.67
2023-06-10T00:34:46.006Z,445.97
2023-06-10T00:37:14.137Z,429.52
2023-06-10T00:39:42.263Z,430.83
2023-06-10T00:42:11.903Z,430.10
2023-06-10T00:44:40.049Z,427.77
2023-06-10T00:47:10.496Z,425.30
2023-06-10T00:49:38.855Z,432.10
2023-06-10T00:52:08.957Z,437.43
2023-06-10T00:54:37.142Z,423.17
2023-06-10T00:57:06.684Z,432.87
2023-06-10T00:59:35.293Z,431.87
2023-06-10T01:02:04.726Z,410.07
2023-06-10T01:04:34.308Z,422.93
2023-06-10T01:07:17.124Z,415.83
2023-06-10T01:09:53.694Z,411.90
2023-06-10T01:12:29.255Z,415.23
2023-06-10T01:14:57.825Z,404.53
2023-06-10T01:17:29.876Z,413.30
2023-06-10T01:20:00.360Z,408.97
2023-06-10T01:22:33.272Z,411.40
2023-06-10T01:25:01.686Z,405.53
2023-06-10T01:27:34.728Z,395.47
2023-06-10T01:30:14.290Z,367.13
2023-06-10T01:32:47.859Z,264.98
2023-06-10T01:35:17.018Z,280.88
2023-06-10T01:37:48.804Z,297.95
2023-06-10T01:40:18.866Z,294.35
2023-06-10T01:42:47.072Z,309.48
2023-06-10T01:45:15.255Z,333.35
2023-06-10T01:47:43.452Z,335.23
2023-06-10T01:50:12.185Z,310.20
2023-06-10T01:52:40.447Z,329.83
2023-06-10T01:55:10.660Z,285.52
2023-06-10T01:57:39.112Z,288.50
2023-06-10T02:00:09.176Z,287.90
2023-06-10T02:02:37.396Z,297.83
2023-06-10T02:05:06.599Z,325.50
2023-06-10T02:07:34.968Z,280.87
2023-06-10T02:10:03.327Z,353.13
2023-06-10T02:12:32.881Z,273.10
2023-06-10T02:15:01.068Z,251.17
2023-06-10T02:17:29.271Z,283.38
2023-06-10T02:19:57.994Z,256.38
2023-06-10T02:22:26.479Z,277.80
2023-06-10T02:24:54.586Z,261.95
2023-06-10T02:27:23.319Z,258.15
2023-06-10T02:29:52.840Z,246.30
2023-06-10T02:32:21.057Z,283.63
2023-06-10T02:34:50.161Z,227.67
2023-06-10T02:37:18.496Z,246.70
2023-06-10T02:39:46.871Z,261.53
2023-06-10T02:42:15.122Z,273.43
2023-06-10T02:44:43.257Z,286.70
2023-06-10T02:47:12.811Z,229.57
2023-06-10T02:49:41.193Z,250.70
2023-06-10T02:52:09.796Z,256.40
2023-06-10T02:54:38.223Z,232.27
2023-06-10T02:57:07.211Z,228.95
2023-06-10T02:59:36.093Z,267.70
2023-06-10T03:02:05.089Z,245.98
2023-06-10T03:04:35.080Z,297.83
2023-06-10T03:07:04.937Z,215.50
2023-06-10T03:09:33.193Z,229.23
2023-06-10T03:12:01.895Z,232.27
2023-06-10T03:14:30.108Z,215.02
2023-06-10T03:16:58.224Z,224.68
2023-06-10T03:19:26.355Z,250.57
2023-06-10T03:22:10.105Z,218.90
2023-06-10T03:24:41.183Z,264.53
2023-06-10T03:27:10.584Z,226.47
2023-06-10T03:29:38.786Z,227.63
2023-06-10T03:32:07.444Z,272.05
2023-06-10T03:34:35.965Z,301.53
2023-06-10T03:37:06.128Z,271.30
2023-06-10T03:39:35.382Z,305.42
2023-06-10T03:42:03.880Z,311.30
2023-06-10T03:44:32.513Z,214.75
2023-06-10T03:47:01.030Z,276.38
2023-06-10T03:49:31.458Z,211.45
2023-06-10T03:52:00.097Z,251.35
2023-06-10T03:54:29.654Z,228.13
2023-06-10T03:56:57.854Z,289.50
2023-06-10T03:59:25.973Z,295.45
2023-06-10T04:01:54.209Z,222.55
2023-06-10T04:04:22.347Z,246.43
2023-06-10T04:06:50.864Z,299.48
2023-06-10T04:09:19.034Z,271.83
2023-06-10T04:11:49.270Z,317.30
2023-06-10T04:14:17.448Z,205.82
2023-06-10T04:16:45.595Z,275.50
2023-06-10T04:19:13.788Z,259.17
2023-06-10T04:21:41.882Z,263.90
2023-06-10T04:24:10.194Z,259.10
2023-06-10T04:26:38.422Z,241.38
2023-06-10T04:29:08.324Z,219.35
2023-06-10T04:31:36.500Z,249.80
2023-06-10T04:34:04.796Z,302.10
2023-06-10T04:36:33.138Z,228.05
2023-06-10T04:39:01.556Z,217.23
2023-06-10T04:41:29.707Z,222.68
2023-06-10T04:43:58.818Z,231.90
2023-06-10T04:46:28.417Z,215.52
2023-06-10T04:48:56.854Z,157.13
2023-06-10T04:51:25.078Z,206.43
2023-06-10T04:53:53.462Z,239.95
2023-06-10T04:56:22.633Z,240.95
2023-06-10T04:58:50.776Z,285.63
2023-06-10T05:01:19.000Z,196.82
2023-06-10T05:03:48.505Z,190.07
2023-06-10T05:06:16.817Z,189.63
2023-06-10T05:08:45.042Z,192.13
2023-06-10T05:11:13.222Z,216.85
2023-06-10T05:13:41.966Z,214.77
2023-06-10T05:16:10.313Z,226.18
2023-06-10T05:18:38.554Z,234.48
2023-06-10T05:21:09.523Z,256.02
2023-06-10T05:23:37.705Z,312.17
2023-06-10T05:26:05.905Z,361.58
2023-06-10T05:28:34.078Z,421.95
2023-06-10T05:31:02.358Z,455.98
2023-06-10T05:33:30.531Z,462.88
2023-06-10T05:35:58.743Z,475.42
2023-06-10T05:38:28.258Z,480.88
2023-06-10T05:40:58.039Z,481.27
2023-06-10T05:43:26.258Z,488.67
2023-06-10T05:45:54.878Z,489.00
2023-06-10T05:48:23.815Z,490.55
2023-06-10T05:50:52.332Z,475.73
2023-06-10T05:53:20.492Z,506.35
2023-06-10T05:55:50.056Z,501.13
2023-06-10T05:58:18.261Z,465.65
2023-06-10T06:00:46.432Z,482.45
2023-06-10T06:03:15.009Z,501.70
2023-06-10T06:05:43.451Z,509.13
2023-06-10T06:08:12.324Z,519.20
2023-06-10T06:10:40.436Z,515.30
2023-06-10T06:13:09.979Z,513.97
2023-06-10T06:15:38.133Z,496.10
2023-06-10T06:18:06.445Z,486.90
2023-06-10T06:20:34.638Z,501.85
2023-06-10T06:23:02.796Z,491.50
2023-06-10T06:25:30.923Z,496.50
2023-06-10T06:27:59.096Z,498.25
2023-06-10T06:30:28.628Z,509.45
2023-06-10T06:32:57.275Z,538.75
2023-06-10T06:35:25.474Z,545.38
2023-06-10T06:37:53.571Z,566.78
2023-06-10T06:40:21.780Z,565.65
2023-06-10T06:42:50.003Z,565.67
2023-06-10T06:45:18.190Z,446.15
2023-06-10T06:47:47.848Z,515.55
2023-06-10T06:50:16.332Z,581.20
2023-06-10T06:52:45.484Z,581.33
2023-06-10T06:55:13.652Z,593.38
2023-06-10T06:57:41.770Z,609.67
2023-06-10T07:00:10.914Z,613.30
2023-06-10T07:02:39.269Z,619.85
2023-06-10T07:05:09.903Z,623.72
2023-06-10T07:07:38.258Z,654.45
2023-06-10T07:10:07.318Z,648.03
2023-06-10T07:12:35.466Z,645.35
2023-06-10T07:15:03.862Z,663.47
2023-06-10T07:17:32.041Z,668.58
2023-06-10T07:20:00.810Z,665.47
2023-06-10T07:22:30.491Z,639.40
2023-06-10T07:24:58.708Z,664.90
2023-06-10T07:27:27.036Z,328.00
2023-06-10T07:29:55.187Z,289.10
2023-06-10T07:32:24.864Z,371.17
2023-06-10T07:34:53.534Z,424.38
2023-06-10T07:37:21.750Z,653.40
2023-06-10T07:39:51.659Z,667.58
2023-06-10T07:42:19.855Z,658.55
2023-06-10T07:44:48.002Z,645.53
2023-06-10T07:47:16.157Z,632.40
2023-06-10T07:49:44.289Z,666.10
2023-06-10T07:52:12.482Z,676.75
2023-06-10T07:54:40.577Z,686.15
2023-06-10T07:57:10.894Z,695.53
2023-06-10T07:59:39.007Z,595.28
2023-06-10T08:02:07.771Z,695.85
2023-06-10T08:04:37.033Z,685.42
2023-06-10T08:07:05.641Z,501.15
2023-06-10T08:09:33.805Z,615.83
2023-06-10T08:12:02.236Z,526.55
2023-06-10T08:14:31.753Z,706.90
2023-06-10T08:17:00.255Z,725.15
2023-06-10T08:19:28.519Z,672.33
2023-06-10T08:21:57.028Z,648.55
2023-06-10T08:24:26.803Z,404.05
2023-06-10T08:26:55.966Z,365.33
2023-06-10T08:29:24.096Z,643.05
2023-06-10T08:31:53.734Z,500.67
2023-06-10T08:34:21.869Z,618.33
2023-06-10T08:36:54.134Z,701.97
2023-06-10T08:39:23.241Z,738.95
2023-06-10T08:42:07.314Z,484.20
2023-06-10T08:44:39.627Z,592.97
2023-06-10T08:47:15.595Z,652.00
2023-06-10T08:49:47.465Z,535.75
2023-06-10T08:52:18.145Z,655.03
2023-06-10T08:54:52.138Z,653.55
2023-06-10T08:57:22.741Z,538.13
2023-06-10T08:59:51.274Z,546.75
2023-06-10T09:02:21.974Z,452.27
2023-06-10T09:04:51.311Z,488.63
2023-06-10T09:07:19.788Z,721.45
2023-06-10T09:09:49.155Z,658.53
2023-06-10T09:12:17.546Z,681.47
2023-06-10T09:14:45.813Z,586.10
2023-06-10T09:17:14.054Z,614.63
2023-06-10T09:19:44.789Z,543.50
2023-06-10T09:22:13.001Z,440.50
2023-06-10T09:24:41.765Z,184.30
2023-06-10T09:27:10.947Z,100.82
2023-06-10T09:29:49.273Z,116.20
2023-06-10T09:32:20.492Z,373.20
2023-06-10T09:34:51.951Z,449.17
2023-06-10T09:37:23.052Z,449.98
2023-06-10T09:40:05.701Z,425.95
2023-06-10T09:42:36.640Z,463.65
2023-06-10T09:45:04.920Z,490.17
2023-06-10T09:47:33.145Z,464.70
2023-06-10T09:50:02.927Z,417.00
2023-06-10T09:52:31.870Z,450.60
2023-06-10T09:55:03.802Z,448.27
2023-06-10T09:57:35.141Z,310.02
2023-06-10T10:00:09.125Z,364.33
2023-06-10T10:02:47.985Z,360.05
2023-06-10T10:05:18.403Z,424.30
2023-06-10T10:07:47.388Z,406.15
2023-06-10T10:10:16.698Z,549.67
2023-06-10T10:12:45.242Z,581.95
2023-06-10T10:15:14.424Z,613.10
2023-06-10T10:17:47.010Z,432.48
2023-06-10T10:20:20.066Z,284.30
2023-06-10T10:22:50.059Z,255.27
2023-06-10T10:25:23.060Z,307.08
2023-06-10T10:27:57.185Z,222.13
2023-06-10T10:30:27.816Z,58.63
2023-06-10T10:33:00.947Z,164.07
2023-06-10T10:35:32.276Z,398.67
2023-06-10T10:38:00.815Z,620.40
2023-06-10T10:40:31.498Z,587.78
2023-06-10T10:43:01.418Z,522.20
2023-06-10T10:45:30.773Z,561.05
2023-06-10T10:47:59.063Z,385.80
2023-06-10T10:50:32.515Z,412.73
2023-06-10T10:53:03.233Z,101.45
2023-06-10T10:55:31.873Z,304.38
2023-06-10T10:58:01.592Z,411.60
2023-06-10T11:00:31.630Z,428.20
2023-06-10T11:03:03.616Z,52.47
2023-06-10T11:05:39.716Z,435.95
2023-06-10T11:08:10.643Z,485.08
2023-06-10T11:10:40.248Z,425.95
2023-06-10T11:13:10.005Z,635.25
2023-06-10T11:15:42.460Z,613.30
2023-06-10T11:18:15.462Z,123.30
2023-06-10T11:21:02.351Z,4.93
2023-06-10T11:23:40.973Z,125.15
2023-06-10T11:26:17.907Z,5.13
2023-06-10T11:29:10.837Z,9.15
2023-06-10T11:31:48.259Z,5.40
2023-06-10T11:34:17.430Z,5.47
2023-06-10T11:36:47.293Z,5.30
2023-06-10T11:39:15.769Z,24.33
2023-06-10T11:41:44.024Z,314.73
2023-06-10T11:44:16.166Z,69.55
2023-06-10T11:46:46.547Z,518.22
2023-06-10T11:49:15.011Z,129.85
2023-06-10T11:51:50.266Z,41.03
2023-06-10T11:54:20.254Z,465.42
2023-06-10T11:56:48.866Z,149.00
2023-06-10T11:59:17.121Z,420.88
2023-06-10T12:01:46.943Z,383.63
2023-06-10T12:04:16.599Z,175.23
2023-06-10T12:06:47.556Z,252.45
2023-06-10T12:09:25.889Z,240.25
2023-06-10T12:11:59.256Z,29.67
2023-06-10T12:14:52.491Z,75.05
2023-06-10T12:17:20.732Z,314.38
2023-06-10T12:19:49.170Z,50.88
2023-06-10T12:22:17.762Z,136.95
2023-06-10T12:25:00.498Z,207.73
2023-06-10T12:27:30.964Z,155.10
2023-06-10T12:30:01.952Z,259.10
2023-06-10T12:32:42.002Z,224.13
2023-06-10T12:35:11.965Z,188.70
2023-06-10T12:37:43.111Z,251.18
2023-06-10T12:40:13.896Z,369.17
2023-06-10T12:42:42.948Z,388.65
2023-06-10T12:45:13.487Z,419.63
2023-06-10T12:47:42.822Z,447.95
2023-06-10T12:50:13.103Z,463.35
2023-06-10T12:52:42.420Z,504.88
2023-06-10T12:55:12.561Z,558.92
2023-06-10T12:57:50.458Z,559.58
2023-06-10T13:00:20.649Z,541.92
2023-06-10T13:02:49.496Z,528.97
2023-06-10T13:05:17.966Z,520.05
2023-06-10T13:07:46.655Z,561.47
2023-06-10T13:10:17.369Z,562.47
2023-06-10T13:12:47.976Z,600.38
2023-06-10T13:15:17.418Z,702.67
2023-06-10T13:17:46.899Z,743.70
2023-06-10T13:20:15.799Z,717.58
2023-06-10T13:22:44.263Z,620.85
2023-06-10T13:25:12.956Z,661.97
2023-06-10T13:27:43.549Z,657.88
2023-06-10T13:30:13.208Z,658.35
2023-06-10T13:32:41.815Z,687.75
2023-06-10T13:35:11.005Z,794.75
2023-06-10T13:37:39.673Z,724.10
2023-06-10T13:40:10.761Z,624.75
2023-06-10T13:42:39.207Z,778.53
2023-06-10T13:45:10.988Z,697.67
2023-06-10T13:47:39.721Z,777.78
2023-06-10T13:50:09.440Z,619.47
2023-06-10T13:52:37.626Z,893.45
2023-06-10T13:55:06.597Z,894.28
2023-06-10T13:57:34.822Z,895.85
2023-06-10T14:00:03.161Z,890.00
2023-06-10T14:02:32.864Z,896.80
2023-06-10T14:05:01.254Z,697.92
2023-06-10T14:07:29.380Z,836.58
2023-06-10T14:09:57.819Z,898.08
2023-06-10T14:12:26.029Z,895.25
2023-06-10T14:14:55.329Z,897.97
2023-06-10T14:17:24.437Z,895.83
2023-06-10T14:19:54.187Z,895.50
2023-06-10T14:22:22.378Z,898.33
2023-06-10T14:24:50.535Z,898.70
2023-06-10T14:27:18.794Z,897.72
2023-06-10T14:29:46.977Z,902.33
2023-06-10T14:32:15.545Z,899.80
2023-06-10T14:34:45.513Z,901.70
2023-06-10T14:37:15.382Z,898.92
2023-06-10T14:39:43.533Z,911.20
2023-06-10T14:42:11.922Z,904.17
2023-06-10T14:44:40.127Z,906.10
2023-06-10T14:47:08.700Z,910.67
2023-06-10T14:49:37.077Z,914.95
2023-06-10T14:52:05.886Z,931.80
2023-06-10T14:54:35.423Z,937.70
2023-06-10T14:57:04.080Z,935.78
2023-06-10T14:59:32.251Z,944.70
2023-06-10T15:02:01.882Z,952.85
2023-06-10T15:04:30.524Z,954.95
2023-06-10T15:06:59.549Z,954.40
2023-06-10T15:09:27.721Z,963.92
2023-06-10T15:11:57.283Z,853.33
2023-06-10T15:14:25.458Z,970.28
2023-06-10T15:16:53.802Z,990.53
2023-06-10T15:19:22.037Z,995.63
2023-06-10T15:21:50.303Z,1005.30
2023-06-10T15:24:18.552Z,1004.22
2023-06-10T15:26:46.816Z,1009.20
2023-06-10T15:29:16.492Z,1011.88
2023-06-10T15:31:44.708Z,1010.30
2023-06-10T15:34:13.082Z,1007.85
2023-06-10T15:36:41.245Z,1020.78
2023-06-10T15:39:09.437Z,1019.28
2023-06-10T15:41:37.601Z,1021.25
2023-06-10T15:44:06.140Z,1014.08
2023-06-10T15:46:36.592Z,1013.20
2023-06-10T15:49:05.061Z,1013.25
2023-06-10T15:51:33.180Z,1002.65
2023-06-10T15:54:01.476Z,1001.33
2023-06-10T15:56:29.677Z,1003.20
2023-06-10T15:58:57.915Z,1007.17
2023-06-10T16:01:26.174Z,1007.97
2023-06-10T16:03:55.811Z,1010.65
2023-06-10T16:06:24.090Z,1001.92
2023-06-10T16:08:52.282Z,1000.78
2023-06-10T16:11:20.849Z,1001.30
2023-06-10T16:13:49.014Z,996.10
2023-06-10T16:16:17.243Z,996.00
2023-06-10T16:18:45.445Z,994.97
2023-06-10T16:21:15.012Z,999.83
2023-06-10T16:23:43.308Z,1000.47
2023-06-10T16:26:11.735Z,1002.00
2023-06-10T16:28:39.913Z,990.38
2023-06-10T16:31:08.226Z,998.25
2023-06-10T16:33:37.419Z,964.33
2023-06-10T16:36:05.819Z,983.20
2023-06-10T16:38:35.372Z,960.15
2023-06-10T16:41:03.549Z,1005.08
2023-06-10T16:43:31.722Z,973.80
2023-06-10T16:45:59.922Z,986.85
2023-06-10T16:48:28.129Z,1005.67
2023-06-10T16:50:56.466Z,1015.13
2023-06-10T16:53:24.614Z,998.65
2023-06-10T16:55:54.251Z,1004.53
2023-06-10T16:58:22.593Z,984.30
2023-06-10T17:00:51.160Z,987.13
2023-06-10T17:03:19.279Z,982.40
2023-06-10T17:05:47.693Z,1006.95
2023-06-10T17:08:15.952Z,957.30
2023-06-10T17:10:44.456Z,987.55
2023-06-10T17:13:14.347Z,1007.80
2023-06-10T17:15:42.893Z,969.70
2023-06-10T17:18:12.457Z,980.95
2023-06-10T17:20:40.784Z,989.67
2023-06-10T17:23:08.998Z,1007.13
2023-06-10T17:25:37.890Z,999.58
2023-06-10T17:28:06.348Z,1019.88
2023-06-10T17:30:35.951Z,1016.25
2023-06-10T17:33:04.469Z,1017.78
2023-06-10T17:35:32.661Z,1009.80
2023-06-10T17:38:00.851Z,993.05
2023-06-10T17:40:29.075Z,1007.92
2023-06-10T17:42:57.274Z,975.65
2023-06-10T17:45:25.555Z,992.22
2023-06-10T17:47:55.183Z,993.63
2023-06-10T17:50:23.532Z,1015.22
2023-06-10T17:52:51.761Z,947.88
2023-06-10T17:55:20.593Z,993.83
2023-06-10T17:57:48.744Z,952.22
2023-06-10T18:00:17.420Z,982.58
2023-06-10T18:02:45.699Z,968.08
2023-06-10T18:05:15.342Z,959.28
2023-06-10T18:07:44.215Z,977.75
2023-06-10T18:10:13.071Z,948.30
2023-06-10T18:12:41.352Z,970.00
2023-06-10T18:15:10.711Z,1003.20
2023-06-10T18:17:39.183Z,1031.10
2023-06-10T18:20:08.627Z,952.25
2023-06-10T18:22:38.605Z,1007.33
2023-06-10T18:25:07.602Z,991.72
2023-06-10T18:27:36.557Z,982.42
2023-06-10T18:30:05.123Z,973.88
2023-06-10T18:32:33.366Z,951.90
2023-06-10T18:35:01.490Z,1022.38
2023-06-10T18:37:29.679Z,915.78
2023-06-10T18:39:59.238Z,915.92
2023-06-10T18:42:28.611Z,952.55
2023-06-10T18:44:56.775Z,961.50
2023-06-10T18:47:24.952Z,953.95
2023-06-10T18:49:53.228Z,956.85
2023-06-10T18:52:21.436Z,945.45
2023-06-10T18:54:49.768Z,931.22
2023-06-10T18:57:19.347Z,966.05
2023-06-10T18:59:47.474Z,952.22
2023-06-10T19:02:16.252Z,952.70
2023-06-10T19:04:45.439Z,941.08
2023-06-10T19:07:13.562Z,901.47
2023-06-10T19:09:41.676Z,919.70
2023-06-10T19:12:11.209Z,917.35
2023-06-10T19:14:41.720Z,925.63
2023-06-10T19:17:11.700Z,921.88
2023-06-10T19:19:39.961Z,907.08
2023-06-10T19:22:08.421Z,862.75
2023-06-10T19:24:36.584Z,910.28
2023-06-10T19:27:05.038Z,885.78
2023-06-10T19:29:33.183Z,803.28
2023-06-10T19:32:02.821Z,899.20
2023-06-10T19:34:31.043Z,890.35
2023-06-10T19:36:59.233Z,886.17
2023-06-10T19:39:27.387Z,886.47
2023-06-10T19:41:55.517Z,885.78
2023-06-10T19:44:23.679Z,874.20
2023-06-10T19:46:52.731Z,866.30
2023-06-10T19:49:22.337Z,865.20
2023-06-10T19:51:52.181Z,860.28
2023-06-10T19:54:20.820Z,853.17
2023-06-10T19:56:49.109Z,849.78
2023-06-10T19:59:17.344Z,859.72
2023-06-10T20:01:45.532Z,854.95
2023-06-10T20:04:13.715Z,861.03
2023-06-10T20:06:43.260Z,845.40
2023-06-10T20:09:11.798Z,782.85
2023-06-10T20:11:40.000Z,844.17
2023-06-10T20:14:08.446Z,836.03
2023-06-10T20:16:36.931Z,838.08
2023-06-10T20:19:05.149Z,828.67
2023-06-10T20:21:33.348Z,828.15
2023-06-10T20:24:06.036Z,822.22
2023-06-10T20:26:34.437Z,820.50
2023-06-10T20:29:03.542Z,813.13
2023-06-10T20:31:31.839Z,810.47
2023-06-10T20:34:00.050Z,809.67
2023-06-10T20:36:29.660Z,792.47
2023-06-10T20:38:59.960Z,789.72
2023-06-10T20:41:30.395Z,793.97
2023-06-10T20:43:59.599Z,792.65
2023-06-10T20:46:27.803Z,781.95
2023-06-10T20:48:55.954Z,781.67
2023-06-10T20:51:24.289Z,783.05
2023-06-10T20:53:52.756Z,781.50
2023-06-10T20:56:21.424Z,781.20
2023-06-10T20:58:51.120Z,702.75
2023-06-10T21:01:19.460Z,651.47
2023-06-10T21:03:47.742Z,610.80
2023-06-10T21:06:16.045Z,663.75
2023-06-10T21:08:44.226Z,694.60
2023-06-10T21:11:12.464Z,702.38
2023-06-10T21:13:40.811Z,669.55
2023-06-10T21:16:10.458Z,685.47
2023-06-10T21:18:38.643Z,689.33
2023-06-10T21:21:06.964Z,695.33
2023-06-10T21:23:35.230Z,718.78
2023-06-10T21:26:06.383Z,710.80
2023-06-10T21:28:34.715Z,731.25
2023-06-10T21:31:04.895Z,718.88
2023-06-10T21:33:34.612Z,703.97
2023-06-10T21:36:03.287Z,705.90
2023-06-10T21:38:31.600Z,683.90
2023-06-10T21:40:59.888Z,722.15
2023-06-10T21:43:28.277Z,723.65
2023-06-10T21:45:57.601Z,704.83
2023-06-10T21:48:25.973Z,700.00
2023-06-10T21:50:55.678Z,702.38
2023-06-10T21:53:24.327Z,694.03
2023-06-10T21:55:52.598Z,689.40
2023-06-10T21:58:20.786Z,707.03
2023-06-10T22:00:48.997Z,700.70
2023-06-10T22:03:17.325Z,701.47
2023-06-10T22:05:45.585Z,698.45
2023-06-10T22:08:15.229Z,703.35
2023-06-10T22:10:43.526Z,708.70
2023-06-10T22:13:11.710Z,692.13
2023-06-10T22:15:39.862Z,699.28
2023-06-10T22:18:08.470Z,699.28
2023-06-10T22:20:36.652Z,694.38
2023-06-10T22:23:05.804Z,683.20
2023-06-10T22:25:35.341Z,682.45
2023-06-10T22:28:03.613Z,683.58
2023-06-10T22:30:32.126Z,684.85
2023-06-10T22:33:00.383Z,678.28
2023-06-10T22:35:28.543Z,677.42
2023-06-10T22:37:56.709Z,667.63
2023-06-10T22:40:25.092Z,664.97
2023-06-10T22:42:54.678Z,664.35
2023-06-10T22:45:22.939Z,655.85
2023-06-10T22:47:51.200Z,652.92
2023-06-10T22:50:19.592Z,655.60
2023-06-10T22:52:47.772Z,649.58
2023-06-10T22:55:16.112Z,641.25
2023-06-10T22:57:44.300Z,638.67
2023-06-10T23:00:16.740Z,633.58
2023-06-10T23:02:45.273Z,630.75
2023-06-10T23:05:13.599Z,626.33
2023-06-10T23:07:41.993Z,620.78
2023-06-10T23:10:10.868Z,633.15
2023-06-10T23:12:39.455Z,623.30
2023-06-10T23:15:08.701Z,622.22
2023-06-10T23:17:38.534Z,621.83
2023-06-10T23:20:08.453Z,620.70
2023-06-10T23:22:37.875Z,623.03
2023-06-10T23:25:07.217Z,612.25
2023-06-10T23:27:35.458Z,613.10
2023-06-10T23:30:03.961Z,601.15
2023-06-10T23:32:32.651Z,613.38
2023-06-10T23:35:02.296Z,603.70
2023-06-10T23:37:30.457Z,602.13
2023-06-10T23:39:58.583Z,605.75
2023-06-10T23:42:26.825Z,601.28
2023-06-10T23:44:55.053Z,593.13
2023-06-10T23:47:23.274Z,596.47
2023-06-10T23:49:51.515Z,591.35
2023-06-10T23:52:22.580Z,584.38
2023-06-10T23:54:51.580Z,575.95
2023-06-10T23:57:19.746Z,581.83
2023-06-10T23:59:47.908Z,591.42
